createdAt,value
2018-08-13T00:00:01.901Z,993.11
2018-08-13T00:05:02.393Z,992.99
2018-08-13T00:10:01.820Z,993.03
2018-08-13T00:15:02.116Z,992.93
2018-08-13T00:20:01.434Z,992.83
2018-08-13T00:25:01.839Z,992.89
2018-08-13T00:30:02.106Z,992.84
2018-08-13T00:35:01.512Z,992.81
2018-08-13T00:40:01.786Z,992.76
2018-08-13T00:45:02.100Z,992.73
2018-08-13T00:50:01.437Z,992.66
2018-08-13T00:55:01.813Z,992.64
2018-08-13T01:00:02.101Z,992.48
2018-08-13T01:05:01.522Z,992.5
2018-08-13T01:10:01.795Z,992.43
2018-08-13T01:15:02.144Z,992.38
2018-08-13T01:20:01.630Z,992.32
2018-08-13T01:25:01.957Z,992.24
2018-08-13T01:30:02.271Z,992.21
2018-08-13T01:35:01.690Z,992.17
2018-08-13T01:40:01.988Z,992.15
2018-08-13T01:45:02.263Z,992.1
2018-08-13T01:50:01.737Z,992.09
2018-08-13T01:55:02.027Z,992.02
2018-08-13T02:00:01.340Z,991.97
2018-08-13T02:05:01.660Z,992.02
2018-08-13T02:10:02.325Z,991.86
2018-08-13T02:15:01.555Z,991.7
2018-08-13T02:20:02.006Z,991.53
2018-08-13T02:25:01.297Z,991.51
2018-08-13T02:30:01.601Z,991.43
2018-08-13T02:35:02.046Z,991.4
2018-08-13T02:40:02.162Z,991.35
2018-08-13T02:45:01.405Z,991.28
2018-08-13T02:50:01.695Z,991.2
2018-08-13T02:55:02.071Z,991.1
2018-08-13T03:00:01.922Z,991.02
2018-08-13T03:05:02.524Z,991.04
2018-08-13T03:10:01.910Z,990.96
2018-08-13T03:15:01.771Z,990.94
2018-08-13T03:20:02.053Z,990.92
2018-08-13T03:25:01.339Z,991.45
2018-08-13T03:30:01.647Z,991.8
2018-08-13T03:35:02.104Z,991.8
2018-08-13T03:40:01.354Z,991.67
2018-08-13T03:45:01.687Z,991.58
2018-08-13T03:50:02.134Z,991.61
2018-08-13T03:55:01.372Z,991.58
2018-08-13T04:00:01.665Z,991.62
2018-08-13T04:05:02.095Z,991.75
2018-08-13T04:10:01.339Z,991.77
2018-08-13T04:15:01.595Z,991.88
2018-08-13T04:20:02.005Z,992
2018-08-13T04:25:01.276Z,992.11
2018-08-13T04:30:01.567Z,992.46
2018-08-13T04:35:02.045Z,992.74
2018-08-13T04:40:01.248Z,992.9
2018-08-13T04:45:01.572Z,992.96
2018-08-13T04:50:01.979Z,992.92
2018-08-13T04:55:02.281Z,992.88
2018-08-13T05:00:01.593Z,992.88
2018-08-13T05:05:02.082Z,992.98
2018-08-13T05:10:01.327Z,992.89
2018-08-13T05:15:01.560Z,992.76
2018-08-13T05:20:01.995Z,992.82
2018-08-13T05:25:01.245Z,993.14
2018-08-13T05:30:01.769Z,993.33
2018-08-13T05:35:02.303Z,993.66
2018-08-13T05:40:01.582Z,993.35
2018-08-13T05:45:01.856Z,993.23
2018-08-13T05:50:02.258Z,992.94
2018-08-13T05:55:01.495Z,992.22
2018-08-13T06:00:01.786Z,992.6
2018-08-13T06:05:02.281Z,992.47
2018-08-13T06:10:01.544Z,992.41
2018-08-13T06:15:01.788Z,992.09
2018-08-13T06:20:02.121Z,992.33
2018-08-13T06:25:01.420Z,992.16
2018-08-13T06:30:01.861Z,992.19
2018-08-13T06:35:02.315Z,992.33
2018-08-13T06:40:01.661Z,992.72
2018-08-13T06:45:01.925Z,992.68
2018-08-13T06:50:02.323Z,992.81
2018-08-13T06:55:01.611Z,992.94
2018-08-13T07:00:02.028Z,993.01
2018-08-13T07:05:01.294Z,993.08
2018-08-13T07:10:01.584Z,993.09
2018-08-13T07:15:01.846Z,993.03
2018-08-13T07:20:02.265Z,992.96
2018-08-13T07:25:01.503Z,992.91
2018-08-13T07:30:01.754Z,992.92
2018-08-13T07:35:02.258Z,992.81
2018-08-13T07:40:01.498Z,992.72
2018-08-13T07:45:01.839Z,992.61
2018-08-13T07:50:02.247Z,992.68
2018-08-13T07:55:01.540Z,992.8
2018-08-13T08:00:02.280Z,992.91
2018-08-13T08:05:01.752Z,992.99
2018-08-13T08:10:01.991Z,993.01
2018-08-13T08:15:01.262Z,993.05
2018-08-13T08:20:01.568Z,993.07
2018-08-13T08:25:01.999Z,993.05
2018-08-13T08:30:01.233Z,993.13
2018-08-13T08:35:01.593Z,993.11
2018-08-13T08:40:01.839Z,993.09
2018-08-13T08:45:02.076Z,993.11
2018-08-13T08:50:01.323Z,993.3
2018-08-13T08:55:01.629Z,993.22
2018-08-13T09:00:01.879Z,993.09
2018-08-13T09:05:02.296Z,993.1
2018-08-13T09:10:01.531Z,993.09
2018-08-13T09:15:01.996Z,993.07
2018-08-13T09:20:01.357Z,993.04
2018-08-13T09:25:01.645Z,993.02
2018-08-13T09:30:01.908Z,992.94
2018-08-13T09:35:02.433Z,992.89
2018-08-13T09:40:01.713Z,992.84
2018-08-13T09:45:01.945Z,992.75
2018-08-13T09:50:02.420Z,992.84
2018-08-13T09:55:01.752Z,992.8
2018-08-13T10:00:02.033Z,992.81
2018-08-13T10:05:01.306Z,992.78
2018-08-13T10:10:01.633Z,992.73
2018-08-13T10:15:01.898Z,992.69
2018-08-13T10:20:02.448Z,992.77
2018-08-13T10:25:01.821Z,992.75
2018-08-13T10:30:02.147Z,992.76
2018-08-13T10:35:01.478Z,992.78
2018-08-13T10:40:01.780Z,992.75
2018-08-13T10:45:02.037Z,992.69
2018-08-13T10:50:01.323Z,992.72
2018-08-13T10:55:01.597Z,992.82
2018-08-13T11:00:01.830Z,992.79
2018-08-13T11:05:02.363Z,992.68
2018-08-13T11:10:01.640Z,992.61
2018-08-13T11:15:01.904Z,992.52
2018-08-13T11:20:02.328Z,992.46
2018-08-13T11:25:01.732Z,992.35
2018-08-13T11:30:01.991Z,992.25
2018-08-13T11:35:01.256Z,992.11
2018-08-13T11:40:01.525Z,992.11
2018-08-13T11:45:01.842Z,992.04
2018-08-13T11:50:02.299Z,992.08
2018-08-13T11:55:01.575Z,991.9
2018-08-13T12:00:01.867Z,991.86
2018-08-13T12:05:02.355Z,991.83
2018-08-13T12:10:01.661Z,991.68
2018-08-13T12:15:01.930Z,991.75
2018-08-13T12:20:02.416Z,991.68
2018-08-13T12:25:01.738Z,991.65
2018-08-13T12:30:01.972Z,991.66
2018-08-13T12:35:01.274Z,991.67
2018-08-13T12:40:01.539Z,991.67
2018-08-13T12:45:01.811Z,991.68
2018-08-13T12:50:02.220Z,991.87
2018-08-13T12:55:01.498Z,991.78
2018-08-13T13:00:01.779Z,991.99
2018-08-13T13:05:02.265Z,992.28
2018-08-13T13:10:01.509Z,992.17
2018-08-13T13:15:01.773Z,992.24
2018-08-13T13:20:01.376Z,992.18
2018-08-13T13:25:01.652Z,992.32
2018-08-13T13:30:01.904Z,992.31
2018-08-13T13:35:02.371Z,992.32
2018-08-13T13:40:01.654Z,992.32
2018-08-13T13:45:01.889Z,992.26
2018-08-13T13:50:02.304Z,992.27
2018-08-13T13:55:01.587Z,992.24
2018-08-13T14:00:01.851Z,992.25
2018-08-13T14:05:02.291Z,992.23
2018-08-13T14:10:01.529Z,992.2
2018-08-13T14:15:01.826Z,992.18
2018-08-13T14:20:02.333Z,992.16
2018-08-13T14:25:01.632Z,992.28
2018-08-13T14:30:01.868Z,992.25
2018-08-13T14:35:02.169Z,992.24
2018-08-13T14:40:01.426Z,992.24
2018-08-13T14:45:01.694Z,992.14
2018-08-13T14:50:02.163Z,992.18
2018-08-13T14:55:01.409Z,992.12
2018-08-13T15:00:01.676Z,992.04
2018-08-13T15:05:02.158Z,992.07
2018-08-13T15:10:01.425Z,992.1
2018-08-13T15:15:01.672Z,992.14
2018-08-13T15:20:02.131Z,992.2
2018-08-13T15:25:01.449Z,992.23
2018-08-13T15:30:01.755Z,992.19
2018-08-13T15:35:02.021Z,992.23
2018-08-13T15:40:01.259Z,992.3
2018-08-13T15:45:01.491Z,992.35
2018-08-13T15:50:01.944Z,992.39
2018-08-13T15:55:02.178Z,992.32
2018-08-13T16:00:01.423Z,992.41
2018-08-13T16:05:01.841Z,992.42
2018-08-13T16:10:02.129Z,992.35
2018-08-13T16:15:01.370Z,992.43
2018-08-13T16:20:01.723Z,992.32
2018-08-13T16:25:01.965Z,992.35
2018-08-13T16:30:02.244Z,992.38
2018-08-13T16:35:01.670Z,992.41
2018-08-13T16:40:01.958Z,992.43
2018-08-13T16:45:02.249Z,992.38
2018-08-13T16:50:01.585Z,992.37
2018-08-13T16:55:01.832Z,992.37
2018-08-13T17:00:02.082Z,992.23
2018-08-13T17:05:01.359Z,992.23
2018-08-13T17:10:01.658Z,992.31
2018-08-13T17:15:01.941Z,992.35
2018-08-13T17:20:02.449Z,992.31
2018-08-13T17:25:02.091Z,992.4
2018-08-13T17:30:01.434Z,992.34
2018-08-13T17:35:01.852Z,992.36
2018-08-13T17:40:02.096Z,992.4
2018-08-13T17:45:01.323Z,992.45
2018-08-13T17:50:01.721Z,992.51
2018-08-13T17:55:02.011Z,992.59
2018-08-13T18:00:01.286Z,992.61
2018-08-13T18:05:01.632Z,992.63
2018-08-13T18:10:01.981Z,992.65
2018-08-13T18:15:02.389Z,992.69
2018-08-13T18:20:01.790Z,992.72
2018-08-13T18:25:02.092Z,992.77
2018-08-13T18:30:01.321Z,992.81
2018-08-13T18:35:01.642Z,992.95
2018-08-13T18:40:01.904Z,992.99
2018-08-13T18:45:02.191Z,993.02
2018-08-13T18:50:01.434Z,993.07
2018-08-13T18:55:01.700Z,993.06
2018-08-13T19:00:01.946Z,993.22
2018-08-13T19:05:02.460Z,993.27
2018-08-13T19:10:01.742Z,993.35
2018-08-13T19:15:02.028Z,993.37
2018-08-13T19:20:01.286Z,993.39
2018-08-13T19:25:01.633Z,993.47
2018-08-13T19:30:01.873Z,993.5
2018-08-13T19:35:02.357Z,993.6
2018-08-13T19:40:01.623Z,993.63
2018-08-13T19:45:01.906Z,993.76
2018-08-13T19:50:02.445Z,993.83
2018-08-13T19:55:01.712Z,993.85
2018-08-13T20:00:01.962Z,993.86
2018-08-13T20:05:01.328Z,993.89
2018-08-13T20:10:01.624Z,993.93
2018-08-13T20:15:02.231Z,994
2018-08-13T20:20:01.500Z,993.86
2018-08-13T20:25:01.880Z,993.88
2018-08-13T20:30:02.151Z,993.97
2018-08-13T20:35:01.430Z,994.01
2018-08-13T20:40:01.686Z,993.99
2018-08-13T20:45:01.951Z,993.99
2018-08-13T20:50:02.421Z,994.03
2018-08-13T20:55:01.749Z,994.08
2018-08-13T21:00:01.999Z,994.12
2018-08-13T21:05:01.294Z,994.13
2018-08-13T21:10:01.543Z,994.22
2018-08-13T21:15:01.791Z,994.16
2018-08-13T21:20:02.282Z,994.18
2018-08-13T21:25:01.651Z,994.17
2018-08-13T21:30:01.893Z,994.31
2018-08-13T21:35:02.341Z,994.41
2018-08-13T21:40:01.654Z,994.49
2018-08-13T21:45:01.903Z,994.53
2018-08-13T21:50:02.362Z,994.58
2018-08-13T21:55:01.615Z,994.58
2018-08-13T22:00:01.887Z,994.6
2018-08-13T22:05:02.402Z,994.67
2018-08-13T22:10:01.664Z,994.73
2018-08-13T22:15:01.900Z,994.71
2018-08-13T22:20:02.345Z,994.75
2018-08-13T22:25:01.648Z,994.78
2018-08-13T22:30:01.911Z,994.81
2018-08-13T22:35:02.451Z,994.85
2018-08-13T22:40:01.716Z,994.91
2018-08-13T22:45:01.964Z,994.97
2018-08-13T22:50:02.439Z,995.04
2018-08-13T22:55:01.751Z,995.07
2018-08-13T23:00:02.005Z,995.1
2018-08-13T23:05:01.274Z,995.11
2018-08-13T23:10:01.546Z,995.11
2018-08-13T23:15:01.831Z,995.3
2018-08-13T23:20:02.294Z,995.28
2018-08-13T23:25:01.602Z,995.3
2018-08-13T23:30:01.836Z,995.37
2018-08-13T23:35:02.336Z,995.32
2018-08-13T23:40:01.620Z,995.34
2018-08-13T23:45:01.863Z,995.42
2018-08-13T23:50:02.119Z,995.44
2018-08-13T23:55:01.343Z,995.37
